Cheviot Hills, CA (90064)

4:58 PM PDT on August 27, 2014 (GMT -0700)
Westwood | Change Station
CLOSE
Current Station
Personal Weather Station
Location: Los Angeles, CA
Elevation: 312 ft
Nearby Weather Stations
Active Advisory: High Surf Advisory

Elev 312 ft 34.06 °N, 118.45 °W | Updated 3 seconds ago

Clear
Clear
82.2 °F
Feels Like 81 °F
N
5.0
Wind Variable Wind from SW
Gusts 11.0 mph

Today
High -- | Low -- °F
--% Chance of Precip.
Yesterday
High -- | Low -- °F
Precip. -- in
6:23 AM 7:25 PM
Waxing Crescent, 5% visible
Pressure 29.98 in
Visibility 10.0 miles
Clouds Clear
Heat Index 81 °F
Dew Point 53 °F
Humidity 37%
Rainfall 0.00 in
Snow Depth Not available.
UV 1.3 out of 12
Pollen 7.50 out of 12
Ozone Moderate
Flu Activity Not available.
METAR KSMO 272351Z 24009KT 10SM CLR 27/12 A2998 RMK AO2 SLP150 T02720117 10294 20261 56013

More Conditions Fewer Conditions

Pressure 29.98 in
Visibility 10.0 miles
Clouds Clear
Heat Index 81 °F
Dew Point 53 °F
Humidity 37%
Rainfall 0.00 in
Snow Depth Not available.
UV 1.3 out of 12
Pollen 7.50 out of 12
Ozone Moderate
Flu Activity Not available.
METAR KSMO 272351Z 24009KT 10SM CLR 27/12 A2998 RMK AO2 SLP150 T02720117 10294 20261 56013

More Conditions Fewer Conditions

10-Day Weather Forecast

Almanac

Astronomy

Aug. 27, 2014 Rise Set
Actual Time 6:23 AM PDT 7:25 PM PDT
Civil Twilight 5:58 AM PDT 7:51 PM PDT
Nautical Twilight 5:27 AM PDT 8:22 PM PDT
Astronomical Twilight 4:55 AM PDT 8:53 PM PDT
Moon 8:16 AM PDT 8:29 PM PDT
Length of Visible Light 13h 53m
Length of Day
13h 02m
Tomorrow will be 2m 0s shorter.
Waxing Crescent, 5% of the Moon is Illuminated
Today
Waxing Crescent
Sep 2
First Quarter
Sep 8
Full
Sep 15
Last Quarter
Sep 24
New

Today's Extremes

State Highs State Lows

Community

WunderPhotos

Upload Photos

1,747,816 photos uploaded!

Nearby

Air Quality

  Air Quality AQ Index Pollutant
Yesterday Good
OZONE
Current Moderate
OZONE
Thursday Good
PM10
Thursday Good
OZONE
Thursday Good
CO
Thursday Good
NO2

Snow Depth

Station Depth Elevation
Leavitt Meadows 0 in 7200 ft
Hagan's Meadow 0 in 8000 ft
Fallen Leaf 0 in 6300 ft
CSS Lab 1 in 6900 ft
Adin Mountain 0 in 6200 ft

Earthquake Activity

City Distance Mag. Time & Date
San Fernando, California 14 miles 2.5 4:57 AM PDT
2014-08-26
Minimum magnitude displayed is 2.5.

Coastal Water Temperatures

Place Temperature
Santa Monica Pier 72.0 °F
Los Angeles, CA 66.9 °F
La Jolla, CA 73.9 °F

Nearby Weather Stations